createdAt,value
2022-07-25T00:01:38.440Z,97289.13
2022-07-25T00:06:43.972Z,97278.91
2022-07-25T00:11:47.572Z,97269.69
2022-07-25T00:16:51.100Z,97265.53
2022-07-25T00:21:56.019Z,97259.88
2022-07-25T00:26:59.843Z,97257.03
2022-07-25T00:32:03.445Z,97261.53
2022-07-25T00:37:08.520Z,97265.72
2022-07-25T00:42:12.072Z,97248.84
2022-07-25T00:47:15.629Z,97259.00
2022-07-25T00:52:21.112Z,97251.00
2022-07-25T00:57:24.715Z,97249.78
2022-07-25T01:02:28.359Z,97245.59
2022-07-25T01:07:34.022Z,97241.88
2022-07-25T01:12:49.677Z,97243.97
2022-07-25T01:17:53.533Z,97239.44
2022-07-25T01:22:59.517Z,97236.41
2022-07-25T01:28:03.378Z,97238.09
2022-07-25T01:33:07.381Z,97235.28
2022-07-25T01:38:12.901Z,97227.41
2022-07-25T01:43:16.491Z,97227.19
2022-07-25T01:48:20.127Z,97221.47
2022-07-25T01:53:25.071Z,97222.81
2022-07-25T01:58:29.758Z,97220.59
2022-07-25T02:03:33.852Z,97209.03
2022-07-25T02:08:39.144Z,97206.63
2022-07-25T02:13:42.738Z,97206.88
2022-07-25T02:18:47.739Z,97201.03
2022-07-25T02:23:53.559Z,97196.97
2022-07-25T02:28:57.181Z,97191.53
2022-07-25T02:34:00.609Z,97191.09
2022-07-25T02:39:06.015Z,97174.38
2022-07-25T02:44:10.102Z,97185.09
2022-07-25T02:49:14.132Z,97177.53
2022-07-25T02:54:21.066Z,97174.19
2022-07-25T02:59:24.736Z,97164.00
2022-07-25T03:04:35.664Z,97163.91
2022-07-25T03:09:40.606Z,97153.88
2022-07-25T03:14:44.044Z,97151.50
2022-07-25T03:19:47.601Z,97148.22
2022-07-25T03:24:53.538Z,97142.50
2022-07-25T03:29:57.234Z,97140.16
2022-07-25T03:35:00.815Z,97129.56
2022-07-25T03:40:07.144Z,97118.59
2022-07-25T03:45:11.711Z,97123.59
2022-07-25T03:50:15.363Z,97121.91
2022-07-25T03:55:20.415Z,97121.25
2022-07-25T04:00:25.160Z,97116.69
2022-07-25T04:05:30.180Z,97120.47
2022-07-25T04:10:35.300Z,97109.03
2022-07-25T04:15:39.056Z,97107.03
2022-07-25T04:20:42.892Z,97103.53
2022-07-25T04:25:47.869Z,97097.72
2022-07-25T04:30:51.625Z,97084.22
2022-07-25T04:35:55.166Z,97078.25
2022-07-25T04:41:00.265Z,97080.13
2022-07-25T04:46:04.351Z,97065.38
2022-07-25T04:51:08.408Z,97068.03
2022-07-25T04:56:13.495Z,97064.00
2022-07-25T05:01:17.311Z,97057.06
2022-07-25T05:06:20.958Z,97057.94
2022-07-25T05:11:25.982Z,97049.44
2022-07-25T05:16:30.440Z,97046.34
2022-07-25T05:21:34.092Z,97055.28
2022-07-25T05:26:39.252Z,97052.38
2022-07-25T05:31:43.087Z,97061.44
2022-07-25T05:36:47.570Z,97052.81
2022-07-25T05:41:52.892Z,97046.84
2022-07-25T05:46:56.875Z,97042.09
2022-07-25T05:52:00.770Z,97035.47
2022-07-25T05:57:06.428Z,97042.97
2022-07-25T06:02:10.344Z,97033.78
2022-07-25T06:07:16.958Z,97023.81
2022-07-25T06:12:24.328Z,97020.25
2022-07-25T06:17:32.349Z,97014.13
2022-07-25T06:22:36.303Z,97009.88
2022-07-25T06:27:41.845Z,96999.19
2022-07-25T06:32:45.711Z,96997.22
2022-07-25T06:37:49.291Z,96994.13
2022-07-25T06:42:54.674Z,96976.56
2022-07-25T06:47:58.851Z,96991.06
2022-07-25T06:53:02.546Z,96978.97
2022-07-25T06:58:07.586Z,96971.94
2022-07-25T07:03:11.531Z,96976.00
2022-07-25T07:08:15.229Z,96962.63
2022-07-25T07:13:24.167Z,96957.22
2022-07-25T07:18:28.568Z,96959.25
2022-07-25T07:23:32.371Z,96969.13
2022-07-25T07:28:38.248Z,96974.22
2022-07-25T07:33:41.852Z,96977.31
2022-07-25T07:38:45.753Z,96977.78
2022-07-25T07:43:51.631Z,96971.06
2022-07-25T07:48:56.231Z,96965.75
2022-07-25T07:54:17.587Z,96961.69
2022-07-25T07:59:23.504Z,96958.28
2022-07-25T08:04:27.294Z,96954.03
2022-07-25T08:09:31.200Z,96952.31
2022-07-25T08:14:36.788Z,96954.03
2022-07-25T08:19:40.702Z,96946.66
2022-07-25T08:24:44.475Z,96946.72
2022-07-25T08:29:49.559Z,96946.94
2022-07-25T08:34:53.548Z,96936.16
2022-07-25T08:39:57.503Z,96926.38
2022-07-25T08:45:08.362Z,96935.91
2022-07-25T08:50:13.917Z,96923.19
2022-07-25T08:55:20.603Z,96915.16
2022-07-25T09:00:29.065Z,96900.25
2022-07-25T09:05:33.699Z,96898.50
2022-07-25T09:10:42.797Z,96891.72
2022-07-25T09:15:50.349Z,96882.63
2022-07-25T09:20:58.772Z,96877.78
2022-07-25T09:26:06.576Z,96852.97
2022-07-25T09:31:12.293Z,96857.97
2022-07-25T09:36:17.161Z,96849.13
2022-07-25T09:41:21.128Z,96848.66
2022-07-25T09:46:31.992Z,96830.75
2022-07-25T09:51:35.987Z,96828.28
2022-07-25T09:56:40.023Z,96821.09
2022-07-25T10:01:57.727Z,96823.50
2022-07-25T10:07:07.631Z,96801.38
2022-07-25T10:12:12.899Z,96805.78
2022-07-25T10:17:23.130Z,96811.16
2022-07-25T10:22:55.296Z,96801.41
2022-07-25T10:28:08.406Z,96800.25
2022-07-25T10:33:16.337Z,96798.41
2022-07-25T10:38:25.980Z,96782.22
2022-07-25T10:43:30.058Z,96769.28
2022-07-25T10:48:35.362Z,96767.19
2022-07-25T10:53:40.234Z,96756.56
2022-07-25T10:58:46.241Z,96747.50
2022-07-25T11:03:52.273Z,96743.63
2022-07-25T11:08:57.957Z,96734.88
2022-07-25T11:14:02.578Z,96718.00
2022-07-25T11:19:17.443Z,96717.13
2022-07-25T11:24:21.275Z,96705.31
2022-07-25T11:29:28.031Z,96709.22
2022-07-25T11:34:36.214Z,96701.84
2022-07-25T11:39:44.239Z,96699.88
2022-07-25T11:44:50.553Z,96690.88
2022-07-25T11:49:58.430Z,96680.81
2022-07-25T11:55:04.760Z,96674.34
2022-07-25T12:00:12.676Z,96659.19
2022-07-25T12:05:20.593Z,96650.59
2022-07-25T12:10:25.867Z,96661.25
2022-07-25T12:15:31.556Z,96657.19
2022-07-25T12:20:39.984Z,96643.66
2022-07-25T12:25:45.757Z,96638.72
2022-07-25T12:30:56.267Z,96631.66
2022-07-25T12:36:06.604Z,96637.97
2022-07-25T12:41:17.458Z,96630.97
2022-07-25T12:46:22.149Z,96627.78
2022-07-25T12:51:27.116Z,96623.50
2022-07-25T12:56:31.118Z,96628.63
2022-07-25T13:01:35.042Z,96627.03
2022-07-25T13:06:40.319Z,96628.44
2022-07-25T13:11:43.887Z,96640.69
2022-07-25T13:16:48.907Z,96630.00
2022-07-25T13:21:54.312Z,96626.81
2022-07-25T13:26:58.034Z,96616.59
2022-07-25T13:32:02.177Z,96606.25
2022-07-25T13:37:07.127Z,96610.88
2022-07-25T13:42:11.279Z,96610.81
2022-07-25T13:47:15.002Z,96606.44
2022-07-25T13:52:20.358Z,96603.31
2022-07-25T13:57:24.031Z,96595.66
2022-07-25T14:02:27.584Z,96586.94
2022-07-25T14:07:32.340Z,96592.91
2022-07-25T14:12:36.257Z,96590.16
2022-07-25T14:17:39.952Z,96581.41
2022-07-25T14:22:44.984Z,96603.06
2022-07-25T14:27:48.564Z,96589.75
2022-07-25T14:32:52.310Z,96586.88
2022-07-25T14:37:57.355Z,96588.53
2022-07-25T14:43:01.562Z,96592.06
2022-07-25T14:48:06.869Z,96587.44
2022-07-25T14:53:12.922Z,96593.13
2022-07-25T14:58:16.604Z,96595.16
2022-07-25T15:03:20.368Z,96605.59
2022-07-25T15:08:25.365Z,96594.28
2022-07-25T15:13:31.392Z,96582.66
2022-07-25T15:18:52.247Z,96572.31
2022-07-25T15:24:00.790Z,96564.13
2022-07-25T15:29:07.774Z,96577.97
2022-07-25T15:34:12.819Z,96582.03
2022-07-25T15:39:19.678Z,96572.75
2022-07-25T15:44:23.250Z,96579.03
2022-07-25T15:49:27.253Z,96577.28
2022-07-25T15:54:32.439Z,96572.22
2022-07-25T15:59:37.508Z,96614.75
2022-07-25T16:04:42.711Z,96633.66
2022-07-25T16:09:48.299Z,96635.03
2022-07-25T16:14:52.133Z,96634.75
2022-07-25T16:19:55.873Z,96622.84
2022-07-25T16:25:03.068Z,96627.59
2022-07-25T16:30:08.199Z,96638.09
2022-07-25T16:35:11.913Z,96641.03
2022-07-25T16:40:17.970Z,96630.47
2022-07-25T16:45:22.334Z,96641.69
2022-07-25T16:50:25.992Z,96642.03
2022-07-25T16:55:31.311Z,96619.66
2022-07-25T17:00:35.145Z,96606.06
2022-07-25T17:05:38.931Z,96609.44
2022-07-25T17:10:44.581Z,96596.63
2022-07-25T17:15:48.530Z,96583.72
2022-07-25T17:20:53.223Z,96575.09
2022-07-25T17:25:58.514Z,96565.19
2022-07-25T17:31:02.312Z,96562.81
2022-07-25T17:36:06.945Z,96555.94
2022-07-25T17:41:11.913Z,96558.94
2022-07-25T17:46:15.534Z,96574.66
2022-07-25T17:51:19.257Z,96594.06
2022-07-25T17:56:24.618Z,96588.38
2022-07-25T18:01:28.534Z,96568.56
2022-07-25T18:06:32.350Z,96583.28
2022-07-25T18:11:37.613Z,96617.16
2022-07-25T18:16:41.910Z,96600.47
2022-07-25T18:21:46.685Z,96612.78
2022-07-25T18:26:51.615Z,96610.38
2022-07-25T18:31:55.282Z,96600.28
2022-07-25T18:36:58.946Z,96605.56
2022-07-25T18:42:03.783Z,96604.66
2022-07-25T18:47:07.363Z,96590.84
2022-07-25T18:52:10.743Z,96592.41
2022-07-25T18:57:15.801Z,96617.56
2022-07-25T19:02:19.471Z,96623.59
2022-07-25T19:07:23.031Z,96636.06
2022-07-25T19:12:28.337Z,96639.50
2022-07-25T19:17:33.419Z,96659.88
2022-07-25T19:22:37.265Z,96676.03
2022-07-25T19:27:43.019Z,96680.59
2022-07-25T19:32:47.790Z,96690.84
2022-07-25T19:37:51.435Z,96705.53
2022-07-25T19:42:56.258Z,96722.03
2022-07-25T19:48:00.997Z,96757.16
2022-07-25T19:53:04.594Z,96762.44
2022-07-25T19:58:10.400Z,96767.28
2022-07-25T20:03:14.198Z,96786.13
2022-07-25T20:08:18.788Z,96801.78
2022-07-25T20:13:23.806Z,96805.75
2022-07-25T20:18:27.470Z,96809.47
2022-07-25T20:23:31.330Z,96831.47
2022-07-25T20:28:36.419Z,96849.34
2022-07-25T20:33:40.390Z,96845.66
2022-07-25T20:38:46.176Z,96859.25
2022-07-25T20:43:53.553Z,96871.50
2022-07-25T20:48:57.742Z,96872.44
2022-07-25T20:54:01.481Z,96885.19
2022-07-25T20:59:07.093Z,96885.13
2022-07-25T21:04:10.934Z,96895.19
2022-07-25T21:09:14.593Z,96912.72
2022-07-25T21:14:19.416Z,96925.91
2022-07-25T21:19:23.131Z,96944.81
2022-07-25T21:24:26.574Z,96952.50
2022-07-25T21:29:31.519Z,96955.94
2022-07-25T21:34:35.082Z,96957.28
2022-07-25T21:39:39.173Z,96953.28
2022-07-25T21:44:45.783Z,96949.31
2022-07-25T21:50:07.120Z,96951.13
2022-07-25T21:55:10.849Z,96952.66
2022-07-25T22:00:16.729Z,96951.28
2022-07-25T22:05:20.741Z,96953.56
2022-07-25T22:10:24.479Z,96955.09
2022-07-25T22:15:29.516Z,96965.31
2022-07-25T22:20:33.157Z,96976.13
2022-07-25T22:25:37.265Z,96974.06
2022-07-25T22:30:42.543Z,96980.31
2022-07-25T22:35:46.339Z,96987.16
2022-07-25T22:40:50.402Z,96999.19
2022-07-25T22:45:55.507Z,96990.69
2022-07-25T22:50:59.375Z,96998.34
2022-07-25T22:56:03.185Z,97006.03
2022-07-25T23:01:08.254Z,97008.53
2022-07-25T23:06:12.952Z,97021.00
2022-07-25T23:11:17.013Z,97033.84
2022-07-25T23:16:22.151Z,97046.69
2022-07-25T23:21:26.213Z,97056.03
2022-07-25T23:26:30.038Z,97056.22
2022-07-25T23:31:35.492Z,97062.66
2022-07-25T23:36:39.246Z,97060.38
2022-07-25T23:41:42.911Z,97063.91
2022-07-25T23:46:47.922Z,97060.56
2022-07-25T23:51:51.713Z,97064.72
2022-07-25T23:56:55.339Z,97077.09
